sensor_id;sensor_type;location;lat;lon;timestamp;P1;durP1;ratioP1;P2;durP2;ratioP2
46983;SDS011;34732;52.112;9.366;2023-03-23T07:55:54;5.28;;;1.40;;
46983;SDS011;34732;52.112;9.366;2023-03-23T07:59:40;4.75;;;1.20;;
46983;SDS011;34732;52.112;9.366;2023-03-23T08:03:06;2.80;;;1.05;;
46983;SDS011;34732;52.112;9.366;2023-03-23T08:07:04;2.85;;;1.05;;
46983;SDS011;34732;52.112;9.366;2023-03-23T08:10:37;2.72;;;0.90;;
46983;SDS011;34732;52.112;9.366;2023-03-23T08:14:15;2.50;;;1.25;;
46983;SDS011;34732;52.112;9.366;2023-03-23T08:17:54;2.40;;;0.90;;
46983;SDS011;34732;52.112;9.366;2023-03-23T08:21:45;2.37;;;1.00;;
46983;SDS011;34732;52.112;9.366;2023-03-23T08:25:26;2.50;;;1.10;;
46983;SDS011;34732;52.112;9.366;2023-03-23T08:33:34;2.30;;;1.33;;
46983;SDS011;34732;52.112;9.366;2023-03-23T08:37:15;2.47;;;1.25;;
46983;SDS011;34732;52.112;9.366;2023-03-23T08:40:56;3.92;;;1.20;;
46983;SDS011;34732;52.112;9.366;2023-03-23T08:44:43;2.88;;;0.93;;
46983;SDS011;34732;52.112;9.366;2023-03-23T08:52:51;2.97;;;0.88;;
46983;SDS011;34732;52.112;9.366;2023-03-23T08:56:43;3.78;;;1.48;;
46983;SDS011;34732;52.112;9.366;2023-03-23T09:00:32;1.88;;;1.00;;
46983;SDS011;34732;52.112;9.366;2023-03-23T09:04:19;2.72;;;1.13;;
46983;SDS011;34732;52.112;9.366;2023-03-23T09:07:44;2.17;;;0.90;;
46983;SDS011;34732;52.112;9.366;2023-03-23T09:11:09;2.95;;;0.98;;
46983;SDS011;34732;52.112;9.366;2023-03-23T09:14:36;3.63;;;0.80;;
46983;SDS011;34732;52.112;9.366;2023-03-23T09:17:58;3.83;;;1.13;;
46983;SDS011;34732;52.112;9.366;2023-03-23T09:21:25;3.70;;;1.15;;
46983;SDS011;34732;52.112;9.366;2023-03-23T09:24:46;3.53;;;1.13;;
46983;SDS011;34732;52.112;9.366;2023-03-23T09:28:10;2.25;;;1.13;;
46983;SDS011;34732;52.112;9.366;2023-03-23T09:35:23;2.38;;;0.82;;
46983;SDS011;34732;52.112;9.366;2023-03-23T09:38:47;3.05;;;1.10;;
46983;SDS011;34732;52.112;9.366;2023-03-23T09:46:07;5.28;;;1.20;;
46983;SDS011;34732;52.112;9.366;2023-03-23T09:56:33;2.38;;;0.90;;
46983;SDS011;34732;52.112;9.366;2023-03-23T10:00:10;3.05;;;0.90;;
46983;SDS011;34732;52.112;9.366;2023-03-23T10:03:42;1.85;;;0.77;;
46983;SDS011;34732;52.112;9.366;2023-03-23T10:07:12;2.00;;;0.60;;
46983;SDS011;34732;52.112;9.366;2023-03-23T10:14:19;2.33;;;1.03;;
46983;SDS011;34732;52.112;9.366;2023-03-23T10:17:54;3.05;;;0.80;;
46983;SDS011;34732;52.112;9.366;2023-03-23T10:21:29;3.55;;;1.25;;
46983;SDS011;34732;52.112;9.366;2023-03-23T10:28:39;2.85;;;0.98;;
46983;SDS011;34732;52.112;9.366;2023-03-23T10:32:34;1.73;;;0.85;;
46983;SDS011;34732;52.112;9.366;2023-03-23T10:36:10;2.78;;;1.00;;
46983;SDS011;34732;52.112;9.366;2023-03-23T10:39:41;2.78;;;0.82;;
46983;SDS011;34732;52.112;9.366;2023-03-23T10:43:09;2.22;;;0.93;;
46983;SDS011;34732;52.112;9.366;2023-03-23T10:50:16;2.55;;;1.00;;
46983;SDS011;34732;52.112;9.366;2023-03-23T10:58:10;1.98;;;0.98;;
46983;SDS011;34732;52.112;9.366;2023-03-23T11:01:35;1.77;;;0.70;;
46983;SDS011;34732;52.112;9.366;2023-03-23T11:05:04;1.65;;;0.90;;
46983;SDS011;34732;52.112;9.366;2023-03-23T11:08:31;2.80;;;1.10;;
46983;SDS011;34732;52.112;9.366;2023-03-23T11:11:55;1.83;;;1.05;;
46983;SDS011;34732;52.112;9.366;2023-03-23T11:22:53;2.28;;;1.02;;
46983;SDS011;34732;52.112;9.366;2023-03-23T11:26:28;2.45;;;0.95;;
46983;SDS011;34732;52.112;9.366;2023-03-23T11:29:56;4.47;;;1.08;;
46983;SDS011;34732;52.112;9.366;2023-03-23T11:33:29;2.85;;;1.35;;
46983;SDS011;34732;52.112;9.366;2023-03-23T11:40:51;6.15;;;1.85;;
46983;SDS011;34732;52.112;9.366;2023-03-23T11:44:17;8.73;;;2.63;;
46983;SDS011;34732;52.112;9.366;2023-03-23T11:52:10;6.55;;;2.35;;
46983;SDS011;34732;52.112;9.366;2023-03-23T11:59:13;5.25;;;2.00;;
46983;SDS011;34732;52.112;9.366;2023-03-23T12:33:19;6.88;;;1.83;;
46983;SDS011;34732;52.112;9.366;2023-03-23T12:44:47;4.30;;;1.98;;
46983;SDS011;34732;52.112;9.366;2023-03-23T12:48:22;6.30;;;1.75;;
46983;SDS011;34732;52.112;9.366;2023-03-23T12:52:09;5.50;;;2.20;;
46983;SDS011;34732;52.112;9.366;2023-03-23T12:56:02;3.97;;;1.77;;
46983;SDS011;34732;52.112;9.366;2023-03-23T13:03:14;6.10;;;1.90;;
46983;SDS011;34732;52.112;9.366;2023-03-23T13:06:42;6.63;;;1.67;;
46983;SDS011;34732;52.112;9.366;2023-03-23T13:10:08;4.15;;;1.30;;
46983;SDS011;34732;52.112;9.366;2023-03-23T13:13:49;5.38;;;1.75;;
46983;SDS011;34732;52.112;9.366;2023-03-23T13:21:48;3.90;;;1.90;;
46983;SDS011;34732;52.112;9.366;2023-03-23T13:24:53;4.53;;;1.90;;
46983;SDS011;34732;52.112;9.366;2023-03-23T13:28:21;4.85;;;1.58;;
46983;SDS011;34732;52.112;9.366;2023-03-23T13:32:04;5.90;;;2.30;;
46983;SDS011;34732;52.112;9.366;2023-03-23T13:36:04;4.75;;;2.05;;
46983;SDS011;34732;52.112;9.366;2023-03-23T13:43:41;4.22;;;1.73;;
46983;SDS011;34732;52.112;9.366;2023-03-23T13:47:22;5.13;;;2.28;;
46983;SDS011;34732;52.112;9.366;2023-03-23T14:01:33;3.63;;;1.70;;
46983;SDS011;34732;52.112;9.366;2023-03-23T14:05:09;5.68;;;1.83;;
46983;SDS011;34732;52.112;9.366;2023-03-23T14:12:12;6.60;;;1.50;;
46983;SDS011;34732;52.112;9.366;2023-03-23T14:15:45;5.00;;;1.67;;
46983;SDS011;34732;52.112;9.366;2023-03-23T14:19:29;5.38;;;1.50;;
46983;SDS011;34732;52.112;9.366;2023-03-23T14:22:54;4.13;;;1.52;;
46983;SDS011;34732;52.112;9.366;2023-03-23T14:26:28;3.47;;;1.67;;
46983;SDS011;34732;52.112;9.366;2023-03-23T14:30:02;3.13;;;1.65;;
46983;SDS011;34732;52.112;9.366;2023-03-23T14:33:31;2.22;;;1.42;;
46983;SDS011;34732;52.112;9.366;2023-03-23T14:36:55;3.55;;;1.33;;
46983;SDS011;34732;52.112;9.366;2023-03-23T14:40:21;2.90;;;1.35;;
46983;SDS011;34732;52.112;9.366;2023-03-23T14:51:54;3.53;;;1.42;;
46983;SDS011;34732;52.112;9.366;2023-03-23T14:55:20;2.55;;;1.15;;
46983;SDS011;34732;52.112;9.366;2023-03-23T14:58:52;3.17;;;1.00;;
46983;SDS011;34732;52.112;9.366;2023-03-23T15:02:24;1.75;;;1.02;;
46983;SDS011;34732;52.112;9.366;2023-03-23T15:05:54;2.65;;;1.10;;
46983;SDS011;34732;52.112;9.366;2023-03-23T15:09:20;2.72;;;1.27;;
46983;SDS011;34732;52.112;9.366;2023-03-23T15:12:44;4.63;;;1.20;;
46983;SDS011;34732;52.112;9.366;2023-03-23T15:16:19;3.35;;;1.27;;
46983;SDS011;34732;52.112;9.366;2023-03-23T15:19:46;2.67;;;1.27;;
46983;SDS011;34732;52.112;9.366;2023-03-23T15:23:13;1.98;;;1.02;;
46983;SDS011;34732;52.112;9.366;2023-03-23T15:26:42;2.45;;;1.10;;
46983;SDS011;34732;52.112;9.366;2023-03-23T15:33:54;2.05;;;1.35;;
46983;SDS011;34732;52.112;9.366;2023-03-23T15:37:19;3.03;;;1.00;;
46983;SDS011;34732;52.112;9.366;2023-03-23T15:41:02;2.67;;;1.13;;
46983;SDS011;34732;52.112;9.366;2023-03-23T15:44:33;2.15;;;0.95;;
46983;SDS011;34732;52.112;9.366;2023-03-23T15:48:10;5.32;;;1.20;;
46983;SDS011;34732;52.112;9.366;2023-03-23T15:51:34;2.50;;;1.00;;
46983;SDS011;34732;52.112;9.366;2023-03-23T15:54:58;2.90;;;1.42;;
46983;SDS011;34732;52.112;9.366;2023-03-23T15:58:41;2.20;;;0.90;;
46983;SDS011;34732;52.112;9.366;2023-03-23T16:02:08;1.63;;;0.70;;
46983;SDS011;34732;52.112;9.366;2023-03-23T16:05:37;2.75;;;1.08;;
46983;SDS011;34732;52.112;9.366;2023-03-23T16:09:06;2.33;;;1.10;;
46983;SDS011;34732;52.112;9.366;2023-03-23T16:12:33;1.98;;;1.00;;
46983;SDS011;34732;52.112;9.366;2023-03-23T16:15:56;2.70;;;1.00;;
46983;SDS011;34732;52.112;9.366;2023-03-23T16:19:21;2.13;;;0.85;;
46983;SDS011;34732;52.112;9.366;2023-03-23T16:22:48;3.03;;;0.70;;
46983;SDS011;34732;52.112;9.366;2023-03-23T16:26:13;2.30;;;0.85;;
46983;SDS011;34732;52.112;9.366;2023-03-23T16:29:41;2.25;;;0.95;;
46983;SDS011;34732;52.112;9.366;2023-03-23T16:33:12;1.50;;;0.85;;
46983;SDS011;34732;52.112;9.366;2023-03-23T16:40:09;3.38;;;0.90;;
46983;SDS011;34732;52.112;9.366;2023-03-23T16:43:39;1.65;;;0.80;;
46983;SDS011;34732;52.112;9.366;2023-03-23T16:47:07;2.08;;;0.88;;
46983;SDS011;34732;52.112;9.366;2023-03-23T16:50:38;2.95;;;1.05;;
46983;SDS011;34732;52.112;9.366;2023-03-23T16:54:01;1.92;;;0.93;;
46983;SDS011;34732;52.112;9.366;2023-03-23T16:57:30;1.83;;;1.10;;
46983;SDS011;34732;52.112;9.366;2023-03-23T17:00:52;1.52;;;0.85;;
46983;SDS011;34732;52.112;9.366;2023-03-23T17:04:18;0.90;;;0.63;;
46983;SDS011;34732;52.112;9.366;2023-03-23T17:07:41;1.80;;;1.27;;
46983;SDS011;34732;52.112;9.366;2023-03-23T17:11:04;1.30;;;0.70;;
46983;SDS011;34732;52.112;9.366;2023-03-23T17:14:31;2.40;;;0.80;;
46983;SDS011;34732;52.112;9.366;2023-03-23T17:17:55;2.05;;;0.70;;
46983;SDS011;34732;52.112;9.366;2023-03-23T17:21:16;1.13;;;0.80;;
46983;SDS011;34732;52.112;9.366;2023-03-23T17:24:45;1.85;;;0.90;;
46983;SDS011;34732;52.112;9.366;2023-03-23T17:28:07;3.40;;;0.85;;
46983;SDS011;34732;52.112;9.366;2023-03-23T17:31:35;2.58;;;0.73;;
46983;SDS011;34732;52.112;9.366;2023-03-23T17:35:03;1.75;;;0.80;;
46983;SDS011;34732;52.112;9.366;2023-03-23T17:38:29;1.33;;;0.60;;
46983;SDS011;34732;52.112;9.366;2023-03-23T17:41:56;3.17;;;1.05;;
46983;SDS011;34732;52.112;9.366;2023-03-23T17:45:21;5.40;;;1.08;;
46983;SDS011;34732;52.112;9.366;2023-03-23T17:48:45;6.90;;;1.40;;
46983;SDS011;34732;52.112;9.366;2023-03-23T17:52:10;4.97;;;1.08;;
46983;SDS011;34732;52.112;9.366;2023-03-23T17:55:34;4.45;;;1.00;;
46983;SDS011;34732;52.112;9.366;2023-03-23T18:02:21;4.22;;;1.02;;
46983;SDS011;34732;52.112;9.366;2023-03-23T18:05:48;4.47;;;1.15;;
46983;SDS011;34732;52.112;9.366;2023-03-23T18:09:19;11.90;;;1.10;;
46983;SDS011;34732;52.112;9.366;2023-03-23T18:12:47;6.32;;;1.00;;
46983;SDS011;34732;52.112;9.366;2023-03-23T18:16:13;3.72;;;0.70;;
46983;SDS011;34732;52.112;9.366;2023-03-23T18:19:38;3.90;;;0.85;;
46983;SDS011;34732;52.112;9.366;2023-03-23T18:23:02;12.02;;;1.70;;
46983;SDS011;34732;52.112;9.366;2023-03-23T18:26:26;5.55;;;1.52;;
46983;SDS011;34732;52.112;9.366;2023-03-23T18:29:52;4.10;;;1.50;;
46983;SDS011;34732;52.112;9.366;2023-03-23T18:33:17;5.00;;;1.92;;
46983;SDS011;34732;52.112;9.366;2023-03-23T18:36:42;3.30;;;1.73;;
46983;SDS011;34732;52.112;9.366;2023-03-23T18:40:06;4.20;;;2.05;;
46983;SDS011;34732;52.112;9.366;2023-03-23T18:43:35;4.03;;;1.70;;
